sensor_id;sensor_type;location;lat;lon;timestamp;pressure;altitude;pressure_sealevel;temperature;humidity
39999;BME280;25696;42.646;23.368;2022-10-16T00:00:27;95145.84;;;11.69;73.38
39999;BME280;25696;42.646;23.368;2022-10-16T00:02:53;95145.06;;;11.75;73.41
39999;BME280;25696;42.646;23.368;2022-10-16T00:05:18;95152.75;;;11.78;73.14
39999;BME280;25696;42.646;23.368;2022-10-16T00:07:43;95157.50;;;11.76;73.17
39999;BME280;25696;42.646;23.368;2022-10-16T00:10:09;95158.16;;;11.78;73.04
39999;BME280;25696;42.646;23.368;2022-10-16T00:12:34;95155.69;;;11.83;72.75
39999;BME280;25696;42.646;23.368;2022-10-16T00:14:59;95160.06;;;11.84;72.37
39999;BME280;25696;42.646;23.368;2022-10-16T00:17:24;95157.59;;;11.89;71.52
39999;BME280;25696;42.646;23.368;2022-10-16T00:19:50;95158.41;;;11.83;71.94
39999;BME280;25696;42.646;23.368;2022-10-16T00:22:15;95156.72;;;11.82;71.88
39999;BME280;25696;42.646;23.368;2022-10-16T00:24:40;95153.38;;;11.80;71.55
39999;BME280;25696;42.646;23.368;2022-10-16T00:27:05;95157.34;;;11.78;71.29
39999;BME280;25696;42.646;23.368;2022-10-16T00:29:31;95159.41;;;11.76;71.58
39999;BME280;25696;42.646;23.368;2022-10-16T00:31:56;95160.78;;;11.72;71.17
39999;BME280;25696;42.646;23.368;2022-10-16T00:34:21;95171.16;;;11.68;71.57
39999;BME280;25696;42.646;23.368;2022-10-16T00:36:47;95169.22;;;11.62;72.02
39999;BME280;25696;42.646;23.368;2022-10-16T00:39:12;95174.81;;;11.61;70.79
39999;BME280;25696;42.646;23.368;2022-10-16T00:41:37;95174.44;;;11.43;71.85
39999;BME280;25696;42.646;23.368;2022-10-16T00:44:03;95176.47;;;11.34;71.97
39999;BME280;25696;42.646;23.368;2022-10-16T00:46:48;95167.84;;;11.24;72.56
39999;BME280;25696;42.646;23.368;2022-10-16T00:49:15;95171.00;;;11.06;73.14
39999;BME280;25696;42.646;23.368;2022-10-16T00:51:42;95166.91;;;11.10;73.45
39999;BME280;25696;42.646;23.368;2022-10-16T00:54:12;95165.31;;;10.95;73.87
39999;BME280;25696;42.646;23.368;2022-10-16T00:56:39;95164.72;;;10.99;74.06
39999;BME280;25696;42.646;23.368;2022-10-16T00:59:05;95165.19;;;11.03;73.09
39999;BME280;25696;42.646;23.368;2022-10-16T01:01:31;95177.38;;;10.99;73.52
39999;BME280;25696;42.646;23.368;2022-10-16T01:03:56;95176.25;;;10.93;74.11
39999;BME280;25696;42.646;23.368;2022-10-16T01:11:27;95196.41;;;10.62;76.00
39999;BME280;25696;42.646;23.368;2022-10-16T01:13:57;95187.97;;;10.65;76.37
39999;BME280;25696;42.646;23.368;2022-10-16T01:16:28;95191.09;;;10.68;76.30
39999;BME280;25696;42.646;23.368;2022-10-16T01:19:09;95180.69;;;10.80;75.73
39999;BME280;25696;42.646;23.368;2022-10-16T01:21:38;95181.63;;;10.72;75.59
39999;BME280;25696;42.646;23.368;2022-10-16T01:29:17;95174.00;;;10.40;78.43
39999;BME280;25696;42.646;23.368;2022-10-16T01:31:52;95170.56;;;10.02;79.34
39999;BME280;25696;42.646;23.368;2022-10-16T01:34:22;95163.69;;;9.85;79.66
39999;BME280;25696;42.646;23.368;2022-10-16T01:36:53;95163.69;;;9.85;79.75
39999;BME280;25696;42.646;23.368;2022-10-16T01:39:22;95173.34;;;9.80;79.06
39999;BME280;25696;42.646;23.368;2022-10-16T01:41:49;95165.69;;;9.39;80.50
39999;BME280;25696;42.646;23.368;2022-10-16T01:44:17;95167.91;;;9.36;80.43
39999;BME280;25696;42.646;23.368;2022-10-16T01:46:46;95170.34;;;9.60;79.49
39999;BME280;25696;42.646;23.368;2022-10-16T01:49:12;95167.59;;;9.31;79.77
39999;BME280;25696;42.646;23.368;2022-10-16T01:51:38;95177.13;;;9.19;79.95
39999;BME280;25696;42.646;23.368;2022-10-16T01:54:04;95182.44;;;9.27;79.84
39999;BME280;25696;42.646;23.368;2022-10-16T01:56:31;95188.25;;;9.16;79.65
39999;BME280;25696;42.646;23.368;2022-10-16T01:58:59;95177.50;;;9.53;78.43
39999;BME280;25696;42.646;23.368;2022-10-16T02:01:27;95180.81;;;9.40;78.44
39999;BME280;25696;42.646;23.368;2022-10-16T02:03:54;95179.81;;;9.19;79.01
39999;BME280;25696;42.646;23.368;2022-10-16T02:06:21;95185.03;;;9.20;79.00
39999;BME280;25696;42.646;23.368;2022-10-16T02:08:47;95192.44;;;9.18;79.13
39999;BME280;25696;42.646;23.368;2022-10-16T02:35:52;95203.53;;;9.52;77.78
39999;BME280;25696;42.646;23.368;2022-10-16T02:38:18;95202.38;;;9.69;77.47
39999;BME280;25696;42.646;23.368;2022-10-16T02:40:45;95202.22;;;10.00;76.45
39999;BME280;25696;42.646;23.368;2022-10-16T02:43:11;95205.25;;;9.97;75.80
39999;BME280;25696;42.646;23.368;2022-10-16T02:45:36;95207.91;;;10.20;74.88
39999;BME280;25696;42.646;23.368;2022-10-16T02:48:01;95208.16;;;10.39;73.72
39999;BME280;25696;42.646;23.368;2022-10-16T02:50:27;95213.34;;;10.41;73.95
39999;BME280;25696;42.646;23.368;2022-10-16T02:52:52;95214.09;;;10.35;73.66
39999;BME280;25696;42.646;23.368;2022-10-16T02:55:18;95213.66;;;10.31;73.95
39999;BME280;25696;42.646;23.368;2022-10-16T02:57:43;95215.88;;;10.42;73.80
39999;BME280;25696;42.646;23.368;2022-10-16T03:00:09;95222.25;;;10.56;72.81
39999;BME280;25696;42.646;23.368;2022-10-16T03:02:35;95227.63;;;10.56;72.31
39999;BME280;25696;42.646;23.368;2022-10-16T03:05:01;95225.34;;;10.53;72.53
39999;BME280;25696;42.646;23.368;2022-10-16T03:07:26;95227.66;;;10.41;72.96
39999;BME280;25696;42.646;23.368;2022-10-16T03:09:51;95225.06;;;10.19;74.79
39999;BME280;25696;42.646;23.368;2022-10-16T03:12:17;95233.63;;;9.70;76.64
39999;BME280;25696;42.646;23.368;2022-10-16T03:14:42;95231.00;;;8.80;79.65
39999;BME280;25696;42.646;23.368;2022-10-16T03:17:07;95236.81;;;8.61;80.90
39999;BME280;25696;42.646;23.368;2022-10-16T03:19:33;95237.03;;;8.51;81.21
39999;BME280;25696;42.646;23.368;2022-10-16T03:21:58;95240.16;;;8.63;81.44
39999;BME280;25696;42.646;23.368;2022-10-16T03:24:23;95243.44;;;8.42;82.18
39999;BME280;25696;42.646;23.368;2022-10-16T03:26:48;95241.69;;;8.57;81.40
39999;BME280;25696;42.646;23.368;2022-10-16T03:29:14;95238.06;;;8.42;82.21
39999;BME280;25696;42.646;23.368;2022-10-16T03:31:40;95240.66;;;8.28;82.31
39999;BME280;25696;42.646;23.368;2022-10-16T03:34:05;95247.72;;;8.12;83.88
39999;BME280;25696;42.646;23.368;2022-10-16T03:36:31;95240.84;;;8.18;84.04
39999;BME280;25696;42.646;23.368;2022-10-16T03:38:56;95236.09;;;8.36;83.63
39999;BME280;25696;42.646;23.368;2022-10-16T03:41:22;95241.78;;;8.41;83.18
39999;BME280;25696;42.646;23.368;2022-10-16T03:43:50;95244.94;;;8.45;83.02
39999;BME280;25696;42.646;23.368;2022-10-16T03:46:17;95241.66;;;8.65;82.57
39999;BME280;25696;42.646;23.368;2022-10-16T03:48:43;95241.16;;;8.93;80.98
39999;BME280;25696;42.646;23.368;2022-10-16T03:51:08;95238.34;;;9.09;79.61
39999;BME280;25696;42.646;23.368;2022-10-16T03:53:34;95241.94;;;9.24;78.49
39999;BME280;25696;42.646;23.368;2022-10-16T03:55:59;95241.03;;;9.31;78.00
39999;BME280;25696;42.646;23.368;2022-10-16T03:58:25;95234.56;;;9.40;77.40
39999;BME280;25696;42.646;23.368;2022-10-16T04:00:53;95233.19;;;9.44;77.08
39999;BME280;25696;42.646;23.368;2022-10-16T04:03:19;95230.50;;;9.44;77.04
39999;BME280;25696;42.646;23.368;2022-10-16T04:05:44;95230.06;;;9.18;78.40
39999;BME280;25696;42.646;23.368;2022-10-16T04:08:10;95234.59;;;8.95;80.44
39999;BME280;25696;42.646;23.368;2022-10-16T04:10:35;95227.72;;;8.93;81.38
39999;BME280;25696;42.646;23.368;2022-10-16T04:13:01;95239.03;;;8.80;81.87
39999;BME280;25696;42.646;23.368;2022-10-16T04:15:26;95239.22;;;8.78;82.37
39999;BME280;25696;42.646;23.368;2022-10-16T04:17:52;95237.81;;;8.90;81.86
39999;BME280;25696;42.646;23.368;2022-10-16T04:20:18;95232.78;;;8.87;81.35
39999;BME280;25696;42.646;23.368;2022-10-16T04:22:43;95239.84;;;8.88;81.47
39999;BME280;25696;42.646;23.368;2022-10-16T04:25:09;95236.34;;;8.80;81.30
39999;BME280;25696;42.646;23.368;2022-10-16T04:27:36;95247.84;;;8.97;80.52
39999;BME280;25696;42.646;23.368;2022-10-16T04:30:01;95237.69;;;8.84;81.96
39999;BME280;25696;42.646;23.368;2022-10-16T04:32:26;95243.00;;;9.15;80.48
39999;BME280;25696;42.646;23.368;2022-10-16T04:34:52;95250.34;;;9.21;80.16
39999;BME280;25696;42.646;23.368;2022-10-16T04:37:17;95249.09;;;9.31;79.33
39999;BME280;25696;42.646;23.368;2022-10-16T04:39:43;95256.03;;;9.26;78.09
39999;BME280;25696;42.646;23.368;2022-10-16T04:42:08;95258.19;;;9.30;74.22
39999;BME280;25696;42.646;23.368;2022-10-16T04:44:33;95258.13;;;9.16;73.74
39999;BME280;25696;42.646;23.368;2022-10-16T04:46:59;95258.22;;;9.00;74.97
39999;BME280;25696;42.646;23.368;2022-10-16T04:49:24;95263.25;;;9.03;75.39
39999;BME280;25696;42.646;23.368;2022-10-16T04:51:50;95266.47;;;8.98;76.79
39999;BME280;25696;42.646;23.368;2022-10-16T04:54:15;95267.44;;;9.05;76.95
39999;BME280;25696;42.646;23.368;2022-10-16T04:56:40;95269.69;;;9.16;76.78
39999;BME280;25696;42.646;23.368;2022-10-16T04:59:12;95268.97;;;9.00;77.33
39999;BME280;25696;42.646;23.368;2022-10-16T05:01:37;95273.94;;;9.11;76.68
39999;BME280;25696;42.646;23.368;2022-10-16T05:04:03;95272.09;;;9.11;77.06
39999;BME280;25696;42.646;23.368;2022-10-16T05:06:29;95278.47;;;9.33;76.25
39999;BME280;25696;42.646;23.368;2022-10-16T05:08:54;95289.19;;;9.41;76.06
39999;BME280;25696;42.646;23.368;2022-10-16T05:11:20;95286.25;;;9.28;75.76
39999;BME280;25696;42.646;23.368;2022-10-16T05:13:45;95288.81;;;9.44;76.68
39999;BME280;25696;42.646;23.368;2022-10-16T05:16:10;95288.94;;;9.50;76.26
39999;BME280;25696;42.646;23.368;2022-10-16T05:18:35;95288.41;;;9.55;75.91
39999;BME280;25696;42.646;23.368;2022-10-16T05:21:01;95291.63;;;9.50;75.37
39999;BME280;25696;42.646;23.368;2022-10-16T05:23:26;95294.34;;;9.65;75.73
39999;BME280;25696;42.646;23.368;2022-10-16T05:25:55;95299.50;;;9.89;74.75
39999;BME280;25696;42.646;23.368;2022-10-16T05:28:23;95296.13;;;10.10;74.53
39999;BME280;25696;42.646;23.368;2022-10-16T05:30:49;95295.91;;;10.19;73.68
39999;BME280;25696;42.646;23.368;2022-10-16T05:33:14;95293.81;;;10.07;72.29
39999;BME280;25696;42.646;23.368;2022-10-16T05:35:39;95291.34;;;9.97;73.03
39999;BME280;25696;42.646;23.368;2022-10-16T05:38:04;95295.50;;;9.85;73.09
39999;BME280;25696;42.646;23.368;2022-10-16T05:40:30;95296.97;;;9.73;74.40
39999;BME280;25696;42.646;23.368;2022-10-16T05:42:55;95298.78;;;9.95;73.02
39999;BME280;25696;42.646;23.368;2022-10-16T05:45:21;95295.34;;;10.24;73.08
39999;BME280;25696;42.646;23.368;2022-10-16T05:47:46;95305.38;;;10.44;72.03
39999;BME280;25696;42.646;23.368;2022-10-16T05:50:12;95300.66;;;10.32;73.08
39999;BME280;25696;42.646;23.368;2022-10-16T05:52:37;95304.09;;;10.40;72.64
39999;BME280;25696;42.646;23.368;2022-10-16T05:55:02;95310.78;;;9.93;74.33
39999;BME280;25696;42.646;23.368;2022-10-16T05:57:28;95312.53;;;10.00;74.91
39999;BME280;25696;42.646;23.368;2022-10-16T05:59:53;95317.13;;;10.14;73.43
39999;BME280;25696;42.646;23.368;2022-10-16T06:02:19;95321.72;;;10.06;74.10
39999;BME280;25696;42.646;23.368;2022-10-16T06:04:44;95325.88;;;10.75;72.89
39999;BME280;25696;42.646;23.368;2022-10-16T06:07:09;95322.91;;;11.70;68.63
39999;BME280;25696;42.646;23.368;2022-10-16T06:09:34;95322.72;;;12.82;65.71
39999;BME280;25696;42.646;23.368;2022-10-16T06:12:00;95327.47;;;13.82;61.60
39999;BME280;25696;42.646;23.368;2022-10-16T06:14:25;95328.19;;;14.62;57.42
39999;BME280;25696;42.646;23.368;2022-10-16T06:19:26;95337.09;;;14.89;56.03
39999;BME280;25696;42.646;23.368;2022-10-16T06:21:51;95341.09;;;14.21;57.45
39999;BME280;25696;42.646;23.368;2022-10-16T06:24:17;95343.19;;;14.52;56.58
39999;BME280;25696;42.646;23.368;2022-10-16T06:26:45;95340.81;;;14.94;56.69
39999;BME280;25696;42.646;23.368;2022-10-16T06:29:11;95346.72;;;14.59;56.10
39999;BME280;25696;42.646;23.368;2022-10-16T06:31:38;95342.75;;;14.74;55.71
39999;BME280;25696;42.646;23.368;2022-10-16T06:34:04;95354.78;;;15.04;55.61
39999;BME280;25696;42.646;23.368;2022-10-16T06:36:34;95350.28;;;14.59;55.89
39999;BME280;25696;42.646;23.368;2022-10-16T06:38:59;95351.53;;;14.43;56.40
39999;BME280;25696;42.646;23.368;2022-10-16T06:41:24;95359.03;;;14.35;57.62
39999;BME280;25696;42.646;23.368;2022-10-16T06:43:50;95360.69;;;14.42;57.57
39999;BME280;25696;42.646;23.368;2022-10-16T06:46:16;95354.69;;;15.44;54.56
39999;BME280;25696;42.646;23.368;2022-10-16T06:48:42;95355.31;;;15.39;53.79
39999;BME280;25696;42.646;23.368;2022-10-16T06:51:11;95359.28;;;15.43;54.49
39999;BME280;25696;42.646;23.368;2022-10-16T06:53:38;95371.69;;;15.06;54.88
39999;BME280;25696;42.646;23.368;2022-10-16T06:56:10;95370.28;;;14.32;57.36
39999;BME280;25696;42.646;23.368;2022-10-16T06:58:36;95371.13;;;14.32;58.32
39999;BME280;25696;42.646;23.368;2022-10-16T07:01:02;95378.19;;;14.79;56.38
39999;BME280;25696;42.646;23.368;2022-10-16T07:03:27;95386.47;;;15.23;56.51
39999;BME280;25696;42.646;23.368;2022-10-16T07:05:52;95377.00;;;15.96;53.40
39999;BME280;25696;42.646;23.368;2022-10-16T07:08:18;95378.72;;;15.91;52.76
39999;BME280;25696;42.646;23.368;2022-10-16T07:10:43;95374.53;;;15.88;53.12
39999;BME280;25696;42.646;23.368;2022-10-16T07:13:08;95373.75;;;16.13;53.22
39999;BME280;25696;42.646;23.368;2022-10-16T07:15:38;95372.69;;;16.51;51.53
39999;BME280;25696;42.646;23.368;2022-10-16T07:18:03;95377.06;;;16.46;51.74
39999;BME280;25696;42.646;23.368;2022-10-16T07:20:28;95382.88;;;16.25;51.94
39999;BME280;25696;42.646;23.368;2022-10-16T07:22:54;95384.63;;;16.44;51.93
39999;BME280;25696;42.646;23.368;2022-10-16T07:25:19;95391.22;;;16.85;50.63
39999;BME280;25696;42.646;23.368;2022-10-16T07:27:44;95386.41;;;17.06;49.83
39999;BME280;25696;42.646;23.368;2022-10-16T07:30:09;95388.31;;;17.05;49.64
39999;BME280;25696;42.646;23.368;2022-10-16T07:32:35;95381.03;;;17.60;48.87
39999;BME280;25696;42.646;23.368;2022-10-16T07:35:00;95390.81;;;17.49;48.24
39999;BME280;25696;42.646;23.368;2022-10-16T07:37:26;95386.97;;;17.57;48.01
39999;BME280;25696;42.646;23.368;2022-10-16T07:39:51;95382.56;;;17.74;47.66
39999;BME280;25696;42.646;23.368;2022-10-16T07:42:16;95389.19;;;17.42;48.54
39999;BME280;25696;42.646;23.368;2022-10-16T07:44:42;95388.75;;;17.02;49.65
39999;BME280;25696;42.646;23.368;2022-10-16T07:47:07;95398.59;;;17.03;49.68
39999;BME280;25696;42.646;23.368;2022-10-16T07:49:32;95389.38;;;17.22;49.48
39999;BME280;25696;42.646;23.368;2022-10-16T07:51:58;95389.22;;;17.78;47.92
39999;BME280;25696;42.646;23.368;2022-10-16T07:54:23;95393.16;;;17.82;47.55
39999;BME280;25696;42.646;23.368;2022-10-16T07:56:48;95390.22;;;17.23;49.05
39999;BME280;25696;42.646;23.368;2022-10-16T07:59:14;95395.94;;;16.97;50.00
39999;BME280;25696;42.646;23.368;2022-10-16T08:01:39;95400.66;;;17.08;49.75
39999;BME280;25696;42.646;23.368;2022-10-16T08:04:05;95398.75;;;17.51;49.06
39999;BME280;25696;42.646;23.368;2022-10-16T08:06:30;95398.34;;;18.31;47.14
39999;BME280;25696;42.646;23.368;2022-10-16T08:08:59;95396.13;;;18.70;45.25
39999;BME280;25696;42.646;23.368;2022-10-16T08:11:25;95401.34;;;18.41;46.12
39999;BME280;25696;42.646;23.368;2022-10-16T08:13:51;95399.06;;;18.57;45.55
39999;BME280;25696;42.646;23.368;2022-10-16T08:16:16;95391.81;;;18.51;45.28
39999;BME280;25696;42.646;23.368;2022-10-16T08:18:42;95397.13;;;19.33;43.97
39999;BME280;25696;42.646;23.368;2022-10-16T08:21:12;95391.91;;;19.55;43.20
39999;BME280;25696;42.646;23.368;2022-10-16T08:25:34;95393.78;;;18.43;44.73
39999;BME280;25696;42.646;23.368;2022-10-16T08:27:59;95391.88;;;18.85;44.86
39999;BME280;25696;42.646;23.368;2022-10-16T08:30:25;95391.41;;;19.58;43.21
39999;BME280;25696;42.646;23.368;2022-10-16T08:32:51;95390.34;;;19.70;42.44
39999;BME280;25696;42.646;23.368;2022-10-16T08:37:52;95386.00;;;19.97;41.65
39999;BME280;25696;42.646;23.368;2022-10-16T08:41:32;95388.41;;;20.95;39.34
39999;BME280;25696;42.646;23.368;2022-10-16T08:44:09;95390.06;;;20.96;39.13
39999;BME280;25696;42.646;23.368;2022-10-16T08:46:55;95384.78;;;21.61;37.77
39999;BME280;25696;42.646;23.368;2022-10-16T08:49:26;95383.66;;;21.40;36.94
39999;BME280;25696;42.646;23.368;2022-10-16T08:51:52;95397.25;;;21.69;36.70
39999;BME280;25696;42.646;23.368;2022-10-16T08:54:23;95389.44;;;21.99;35.36
39999;BME280;25696;42.646;23.368;2022-10-16T08:56:56;95386.06;;;22.13;34.76
39999;BME280;25696;42.646;23.368;2022-10-16T08:59:22;95401.06;;;22.06;34.69
39999;BME280;25696;42.646;23.368;2022-10-16T09:01:49;95394.03;;;22.58;34.17
39999;BME280;25696;42.646;23.368;2022-10-16T09:12:25;95391.13;;;25.34;29.36
39999;BME280;25696;42.646;23.368;2022-10-16T09:22:46;95383.88;;;26.03;28.49
39999;BME280;25696;42.646;23.368;2022-10-16T09:25:16;95384.97;;;26.17;27.08
39999;BME280;25696;42.646;23.368;2022-10-16T09:27:42;95390.94;;;27.95;25.26
39999;BME280;25696;42.646;23.368;2022-10-16T09:30:19;95387.88;;;29.47;23.45
39999;BME280;25696;42.646;23.368;2022-10-16T09:32:44;95389.38;;;28.83;23.80
39999;BME280;25696;42.646;23.368;2022-10-16T09:35:14;95389.28;;;24.37;28.61
39999;BME280;25696;42.646;23.368;2022-10-16T09:37:41;95382.66;;;24.28;29.72
39999;BME280;25696;42.646;23.368;2022-10-16T09:40:11;95383.41;;;24.91;29.26
39999;BME280;25696;42.646;23.368;2022-10-16T09:42:37;95380.66;;;25.36;28.50
39999;BME280;25696;42.646;23.368;2022-10-16T09:45:02;95385.38;;;25.45;28.41
39999;BME280;25696;42.646;23.368;2022-10-16T09:47:29;95374.50;;;28.32;24.52
39999;BME280;25696;42.646;23.368;2022-10-16T09:49:56;95370.16;;;29.93;23.03
39999;BME280;25696;42.646;23.368;2022-10-16T09:52:23;95371.06;;;30.35;22.18
39999;BME280;25696;42.646;23.368;2022-10-16T09:54:58;95366.16;;;30.94;21.37
39999;BME280;25696;42.646;23.368;2022-10-16T09:57:24;95367.34;;;31.73;20.76
39999;BME280;25696;42.646;23.368;2022-10-16T09:59:53;95373.72;;;33.05;19.48
39999;BME280;25696;42.646;23.368;2022-10-16T10:02:29;95364.84;;;32.56;19.56
39999;BME280;25696;42.646;23.368;2022-10-16T10:04:55;95369.31;;;31.95;20.20
39999;BME280;25696;42.646;23.368;2022-10-16T10:07:30;95366.63;;;31.46;20.51
39999;BME280;25696;42.646;23.368;2022-10-16T10:09:59;95363.50;;;30.89;21.26
39999;BME280;25696;42.646;23.368;2022-10-16T10:12:25;95357.00;;;28.60;23.06
39999;BME280;25696;42.646;23.368;2022-10-16T10:14:55;95342.22;;;27.41;24.68
39999;BME280;25696;42.646;23.368;2022-10-16T10:17:25;95353.38;;;26.39;25.57
39999;BME280;25696;42.646;23.368;2022-10-16T10:19:58;95352.19;;;25.81;26.97
39999;BME280;25696;42.646;23.368;2022-10-16T10:30:24;95343.38;;;22.49;30.56
39999;BME280;25696;42.646;23.368;2022-10-16T10:49:34;95338.28;;;20.05;35.42
39999;BME280;25696;42.646;23.368;2022-10-16T11:07:33;95315.03;;;19.51;34.53
39999;BME280;25696;42.646;23.368;2022-10-16T11:10:21;95315.03;;;19.51;32.82
39999;BME280;25696;42.646;23.368;2022-10-16T11:12:49;95306.31;;;19.03;33.41
39999;BME280;25696;42.646;23.368;2022-10-16T11:15:21;95305.84;;;18.94;33.45
39999;BME280;25696;42.646;23.368;2022-10-16T11:17:50;95307.44;;;19.30;32.65
39999;BME280;25696;42.646;23.368;2022-10-16T11:20:24;95307.97;;;19.04;32.38
39999;BME280;25696;42.646;23.368;2022-10-16T11:22:52;95305.09;;;18.99;32.90
39999;BME280;25696;42.646;23.368;2022-10-16T11:25:20;95304.19;;;18.82;33.53
39999;BME280;25696;42.646;23.368;2022-10-16T11:27:49;95311.28;;;18.60;34.31
39999;BME280;25696;42.646;23.368;2022-10-16T11:35:32;95298.00;;;19.21;33.45
39999;BME280;25696;42.646;23.368;2022-10-16T11:38:02;95304.72;;;19.30;33.61
39999;BME280;25696;42.646;23.368;2022-10-16T11:40:32;95298.38;;;19.64;33.48
39999;BME280;25696;42.646;23.368;2022-10-16T11:43:10;95308.97;;;19.61;33.36
39999;BME280;25696;42.646;23.368;2022-10-16T11:45:41;95294.72;;;19.59;33.58
39999;BME280;25696;42.646;23.368;2022-10-16T11:55:51;95297.28;;;19.37;34.66
39999;BME280;25696;42.646;23.368;2022-10-16T11:58:34;95296.19;;;19.26;35.34
39999;BME280;25696;42.646;23.368;2022-10-16T12:01:12;95292.41;;;19.16;35.70
39999;BME280;25696;42.646;23.368;2022-10-16T12:03:47;95299.63;;;19.45;35.38
39999;BME280;25696;42.646;23.368;2022-10-16T12:08:51;95303.91;;;19.18;34.78
39999;BME280;25696;42.646;23.368;2022-10-16T12:11:24;95302.25;;;19.40;34.30
39999;BME280;25696;42.646;23.368;2022-10-16T12:16:50;95299.19;;;19.76;34.27
39999;BME280;25696;42.646;23.368;2022-10-16T12:19:16;95303.50;;;20.00;33.67
39999;BME280;25696;42.646;23.368;2022-10-16T12:21:42;95285.19;;;20.29;33.53
39999;BME280;25696;42.646;23.368;2022-10-16T12:24:18;95295.19;;;20.24;33.36
39999;BME280;25696;42.646;23.368;2022-10-16T12:26:45;95287.41;;;20.32;33.15
39999;BME280;25696;42.646;23.368;2022-10-16T12:29:13;95285.91;;;20.25;33.47
39999;BME280;25696;42.646;23.368;2022-10-16T12:31:43;95290.72;;;20.06;33.27
39999;BME280;25696;42.646;23.368;2022-10-16T12:36:53;95295.44;;;19.94;33.32
39999;BME280;25696;42.646;23.368;2022-10-16T12:39:27;95298.50;;;20.26;32.81
39999;BME280;25696;42.646;23.368;2022-10-16T12:42:06;95300.16;;;20.27;32.59
39999;BME280;25696;42.646;23.368;2022-10-16T12:44:44;95301.38;;;19.63;33.23
39999;BME280;25696;42.646;23.368;2022-10-16T12:49:54;95300.44;;;20.25;33.02
39999;BME280;25696;42.646;23.368;2022-10-16T12:52:24;95299.78;;;20.07;33.06
39999;BME280;25696;42.646;23.368;2022-10-16T12:54:50;95306.22;;;20.00;34.01
39999;BME280;25696;42.646;23.368;2022-10-16T13:10:44;95304.91;;;20.31;34.49
39999;BME280;25696;42.646;23.368;2022-10-16T13:15:52;95309.63;;;20.08;34.18
39999;BME280;25696;42.646;23.368;2022-10-16T13:23:47;95302.22;;;19.91;34.42
39999;BME280;25696;42.646;23.368;2022-10-16T13:28:48;95305.31;;;20.12;33.99
39999;BME280;25696;42.646;23.368;2022-10-16T13:31:18;95296.13;;;20.18;33.82
39999;BME280;25696;42.646;23.368;2022-10-16T13:33:49;95307.88;;;20.01;34.06
39999;BME280;25696;42.646;23.368;2022-10-16T13:36:33;95299.63;;;20.13;33.86
39999;BME280;25696;42.646;23.368;2022-10-16T13:39:13;95314.03;;;20.09;33.58
39999;BME280;25696;42.646;23.368;2022-10-16T13:41:39;95316.66;;;20.03;34.08
39999;BME280;25696;42.646;23.368;2022-10-16T13:44:05;95313.66;;;20.05;33.95
39999;BME280;25696;42.646;23.368;2022-10-16T13:46:33;95306.00;;;20.19;33.65
39999;BME280;25696;42.646;23.368;2022-10-16T13:49:00;95310.34;;;19.35;34.63
39999;BME280;25696;42.646;23.368;2022-10-16T13:51:26;95304.50;;;19.83;34.13
39999;BME280;25696;42.646;23.368;2022-10-16T13:53:52;95307.47;;;20.10;33.88
39999;BME280;25696;42.646;23.368;2022-10-16T13:56:21;95312.94;;;20.10;33.74
39999;BME280;25696;42.646;23.368;2022-10-16T13:58:57;95322.38;;;20.02;34.33
39999;BME280;25696;42.646;23.368;2022-10-16T14:01:24;95314.47;;;20.17;33.58
39999;BME280;25696;42.646;23.368;2022-10-16T14:03:50;95312.69;;;20.23;33.79
39999;BME280;25696;42.646;23.368;2022-10-16T14:06:17;95315.28;;;20.18;33.74
39999;BME280;25696;42.646;23.368;2022-10-16T14:08:44;95321.66;;;20.07;33.90
39999;BME280;25696;42.646;23.368;2022-10-16T14:11:11;95322.25;;;19.97;34.59
39999;BME280;25696;42.646;23.368;2022-10-16T14:13:37;95330.53;;;19.34;35.43
39999;BME280;25696;42.646;23.368;2022-10-16T14:16:07;95323.63;;;19.55;35.13
39999;BME280;25696;42.646;23.368;2022-10-16T14:18:34;95326.47;;;19.48;35.25
39999;BME280;25696;42.646;23.368;2022-10-16T14:21:04;95327.44;;;19.42;34.76
39999;BME280;25696;42.646;23.368;2022-10-16T14:23:35;95331.81;;;19.20;34.93
39999;BME280;25696;42.646;23.368;2022-10-16T14:26:11;95338.81;;;19.39;34.58
39999;BME280;25696;42.646;23.368;2022-10-16T14:28:40;95330.97;;;19.31;34.49
39999;BME280;25696;42.646;23.368;2022-10-16T14:33:47;95337.16;;;18.92;35.05
39999;BME280;25696;42.646;23.368;2022-10-16T14:36:13;95338.81;;;18.93;35.28
39999;BME280;25696;42.646;23.368;2022-10-16T14:38:47;95333.84;;;18.90;35.05
39999;BME280;25696;42.646;23.368;2022-10-16T14:41:13;95340.13;;;18.79;35.13
39999;BME280;25696;42.646;23.368;2022-10-16T14:43:40;95340.38;;;18.77;35.38
39999;BME280;25696;42.646;23.368;2022-10-16T14:46:08;95350.94;;;18.74;35.38
39999;BME280;25696;42.646;23.368;2022-10-16T14:48:36;95346.06;;;18.34;36.23
39999;BME280;25696;42.646;23.368;2022-10-16T14:51:07;95345.94;;;18.41;36.30
39999;BME280;25696;42.646;23.368;2022-10-16T14:53:34;95348.47;;;18.42;36.28
39999;BME280;25696;42.646;23.368;2022-10-16T14:56:05;95348.78;;;18.34;36.60
39999;BME280;25696;42.646;23.368;2022-10-16T14:58:31;95351.56;;;18.16;36.90
39999;BME280;25696;42.646;23.368;2022-10-16T15:00:56;95359.22;;;17.96;37.25
39999;BME280;25696;42.646;23.368;2022-10-16T15:03:21;95361.63;;;18.04;37.16
39999;BME280;25696;42.646;23.368;2022-10-16T15:05:47;95353.16;;;17.94;37.58
39999;BME280;25696;42.646;23.368;2022-10-16T15:08:12;95361.94;;;17.96;37.71
39999;BME280;25696;42.646;23.368;2022-10-16T15:10:39;95359.50;;;18.06;37.33
39999;BME280;25696;42.646;23.368;2022-10-16T15:13:04;95366.88;;;17.88;38.09
39999;BME280;25696;42.646;23.368;2022-10-16T15:15:32;95358.81;;;17.63;38.66
39999;BME280;25696;42.646;23.368;2022-10-16T15:17:58;95361.06;;;17.66;38.19
39999;BME280;25696;42.646;23.368;2022-10-16T15:20:33;95369.22;;;17.48;38.42
39999;BME280;25696;42.646;23.368;2022-10-16T15:23:00;95364.16;;;17.33;39.02